.
WxDataArchive / Data Records for 2006-04-16
2006-04-15 April 2006 2006-04-17

Data Records for Sunday, 16 April 2006

Time	Temp	Chill	HIndex	Humid	Dewpt	 Wind 	HiWind	WindDir	Rain 	Barom 
-----	----	-----	------	-----	-----	------	------	-------	-----	----- 
00:00	57.3	57.3	57.3	41	33.8	0	1	270	0.00	29.705 
00:05	57.3	57.3	57.3	41	33.8	0	2	270	0.00	29.705 
00:10	57.5	57.5	57.5	41	34.0	1	4	90	0.00	29.705 
00:15	57.6	57.6	57.6	41	34.1	0	2	90	0.00	29.706 
00:20	57.8	57.8	57.8	39	33.0	1	3	90	0.00	29.706 
00:25	57.6	57.6	57.6	40	33.5	1	2	90	0.00	29.706 
00:30	57.6	57.6	57.6	39	32.8	1	3	90	0.00	29.711 
00:35	57.3	57.3	57.3	40	33.2	1	2	90	0.00	29.711 
00:40	57.0	57.0	57.0	40	32.9	0	1	90	0.00	29.711 
00:45	56.7	56.7	56.7	42	33.9	0	2	90	0.00	29.719 
00:50	56.5	56.5	56.5	42	33.7	0	2	90	0.00	29.719 
00:55	56.2	56.2	56.2	42	33.4	0	0	---	0.00	29.719 
01:00	55.7	55.7	55.7	43	33.6	0	1	90	0.00	29.727 
01:05	55.4	55.4	55.4	45	34.4	0	0	---	0.00	29.727 
01:10	55.0	55.0	55.0	46	34.6	0	0	---	0.00	29.727 
01:15	54.4	54.4	54.4	46	34.1	0	0	---	0.00	29.732 
01:20	53.8	53.8	53.8	47	34.0	0	0	---	0.00	29.732 
01:25	53.3	53.3	53.3	50	35.1	0	0	---	0.00	29.732 
01:30	52.8	52.8	52.8	52	35.7	0	0	---	0.00	29.739 
01:35	52.3	52.3	52.3	50	34.2	0	0	---	0.00	29.739 
01:40	52.0	52.0	52.0	51	34.4	0	0	---	0.00	29.739 
01:45	51.6	51.6	51.6	52	34.6	0	0	---	0.00	29.738 
01:50	51.4	51.4	51.4	53	34.8	0	0	---	0.00	29.738 
01:55	51.4	51.4	51.4	52	34.4	0	1	90	0.00	29.738 
02:00	51.4	51.4	51.4	52	34.4	0	0	---	0.00	29.741 
02:05	51.7	51.7	51.7	52	34.6	0	2	90	0.00	29.741 
02:10	52.6	52.6	52.6	50	34.5	1	2	90	0.00	29.741 
02:15	53.5	53.5	53.5	49	34.8	1	2	90	0.00	29.733 
02:20	53.9	53.9	53.9	49	35.2	1	3	90	0.00	29.733 
02:25	54.2	54.2	54.2	47	34.4	1	4	90	0.00	29.733 
02:30	54.4	54.4	54.4	47	34.6	2	6	90	0.00	29.724 
02:35	54.5	54.5	54.5	47	34.7	2	4	90	0.00	29.724 
02:40	54.5	54.5	54.5	47	34.7	1	4	68	0.00	29.724 
02:45	54.4	54.4	54.4	47	34.6	1	3	90	0.00	29.724 
02:50	54.2	54.2	54.2	48	34.9	2	4	112	0.00	29.724 
02:55	54.1	54.1	54.1	48	34.8	2	3	90	0.00	29.724 
03:00	54.1	54.1	54.1	48	34.8	2	6	90	0.00	29.721 
03:05	53.9	53.9	53.9	49	35.2	2	5	90	0.00	29.721 
03:10	53.9	53.9	53.9	49	35.2	1	3	90	0.00	29.721 
03:15	53.8	53.8	53.8	50	35.6	1	3	90	0.00	29.729 
03:20	53.6	53.6	53.6	51	35.9	0	2	90	0.00	29.729 
03:25	53.5	53.5	53.5	52	36.3	1	3	90	0.00	29.729 
03:30	53.5	53.5	53.5	52	36.3	3	6	90	0.00	29.729 
03:35	53.3	53.3	53.3	54	37.1	3	4	90	0.00	29.729 
03:40	53.3	53.3	53.3	55	37.5	2	5	90	0.00	29.729 
03:45	53.1	53.1	53.1	55	37.4	3	6	90	0.00	29.730 
03:50	52.9	52.9	52.9	57	38.1	2	5	90	0.00	29.730 
03:55	52.8	52.8	52.8	58	38.4	2	5	90	0.00	29.730 
04:00	52.6	52.6	52.6	58	38.2	1	3	90	0.00	29.736 
04:05	52.5	52.5	52.5	58	38.2	1	4	90	0.00	29.736 
04:10	52.5	52.5	52.5	58	38.2	1	3	90	0.00	29.736 
04:15	52.3	52.3	52.3	59	38.4	0	1	90	0.00	29.757 
04:20	52.2	52.2	52.2	60	38.7	0	1	90	0.00	29.757 
04:25	52.0	52.0	52.0	60	38.5	0	0	---	0.00	29.757 
04:30	52.0	52.0	52.0	62	39.4	0	0	---	0.00	29.768 
04:35	51.9	51.9	51.9	62	39.3	0	3	90	0.00	29.768 
04:40	52.0	52.0	52.0	62	39.4	1	3	90	0.00	29.768 
04:45	52.0	52.0	52.0	64	40.2	1	4	68	0.00	29.767 
04:50	51.9	51.9	51.9	65	40.5	1	4	90	0.00	29.767 
04:55	51.9	51.9	51.9	67	41.3	1	4	112	0.00	29.767 
05:00	51.9	51.9	51.9	67	41.3	1	4	90	0.00	29.768 
05:05	51.6	51.6	51.6	70	42.1	1	4	45	0.00	29.768 
05:10	51.4	51.4	51.4	72	42.7	2	7	112	0.00	29.768 
05:15	51.3	51.3	51.3	73	42.9	1	4	112	0.00	29.768 
05:20	51.1	51.1	51.1	74	43.1	2	5	90	0.00	29.768 
05:25	51.0	51.0	51.0	76	43.7	2	5	90	0.00	29.768 
05:30	51.0	51.0	51.0	77	44.0	2	7	90	0.00	29.764 
05:35	50.8	50.8	50.8	79	44.5	2	5	112	0.00	29.764 
05:40	50.5	50.5	50.5	80	44.6	3	5	90	0.01	29.764 
05:45	50.2	50.2	50.2	82	44.9	1	5	90	0.00	29.770 
05:50	50.1	50.1	50.1	85	45.8	1	4	90	0.01	29.770 
05:55	49.9	49.9	49.9	85	45.6	2	5	90	0.01	29.770 
06:00	49.6	49.6	49.6	86	45.6	2	5	90	0.01	29.757 
06:05	49.5	49.5	49.5	86	45.5	1	3	90	0.00	29.757 
06:10	49.4	49.4	49.4	87	45.7	2	5	90	0.00	29.757 
06:15	49.4	49.4	49.4	87	45.7	3	6	112	0.00	29.744 
06:20	49.2	49.2	49.2	88	45.8	0	3	68	0.00	29.744 
06:25	49.2	49.2	49.2	88	45.8	1	4	112	0.01	29.744 
06:30	49.2	49.2	49.2	88	45.8	2	5	90	0.00	29.757 
06:35	49.1	49.1	49.1	88	45.7	1	4	45	0.00	29.757 
06:40	48.9	48.9	48.9	88	45.5	3	6	90	0.00	29.757 
06:45	48.8	48.8	48.8	88	45.4	3	6	90	0.00	29.743 
06:50	48.8	48.8	48.8	88	45.4	3	8	90	0.00	29.743 
06:55	48.6	47.3	48.6	87	44.9	4	9	112	0.00	29.743 
07:00	48.6	47.3	48.6	88	45.2	4	10	90	0.00	29.740 
07:05	48.8	47.5	48.8	87	45.1	4	7	112	0.00	29.740 
07:10	48.8	48.8	48.8	88	45.4	3	10	90	0.00	29.740 
07:15	48.9	48.9	48.9	88	45.5	1	5	90	0.00	29.742 
07:20	48.9	48.9	48.9	88	45.5	1	4	90	0.00	29.742 
07:25	48.9	48.9	48.9	88	45.5	2	6	90	0.00	29.742 
07:30	49.1	47.2	49.1	87	45.4	5	9	90	0.00	29.727 
07:35	49.1	46.6	49.1	86	45.1	6	12	112	0.00	29.727 
07:40	49.2	47.3	49.2	85	44.9	5	12	90	0.00	29.727 
07:45	49.2	46.7	49.2	84	44.6	6	11	90	0.00	29.708 
07:50	49.2	47.3	49.2	84	44.6	5	11	90	0.00	29.708 
07:55	49.4	49.4	49.4	85	45.1	3	10	90	0.00	29.708 
08:00	49.4	48.2	49.4	84	44.8	4	8	112	0.00	29.698 
08:05	49.5	47.1	49.5	83	44.6	6	12	112	0.00	29.698 
08:10	49.6	47.2	49.6	81	44.0	6	12	90	0.00	29.698 
08:15	49.9	48.1	49.9	82	44.6	5	10	90	0.00	29.704 
08:20	50.1	50.1	50.1	81	44.5	5	12	112	0.00	29.704 
08:25	50.2	50.2	50.2	81	44.6	4	9	90	0.00	29.704 
08:30	50.4	50.4	50.4	81	44.8	4	11	90	0.00	29.717 
08:35	50.5	50.5	50.5	81	44.9	3	7	90	0.00	29.717 
08:40	50.7	50.7	50.7	80	44.8	5	11	112	0.00	29.717 
08:45	50.5	50.5	50.5	80	44.6	5	11	90	0.00	29.726 
08:50	50.4	50.4	50.4	80	44.5	4	7	90	0.00	29.726 
08:55	50.4	50.4	50.4	79	44.1	4	10	90	0.00	29.726 
09:00	50.5	50.5	50.5	80	44.6	4	7	90	0.00	29.734 
09:05	51.0	51.0	51.0	80	45.0	4	6	90	0.00	29.734 
09:10	51.4	51.4	51.4	79	45.1	4	10	112	0.00	29.734 
09:15	51.7	51.7	51.7	78	45.1	4	7	90	0.00	29.734 
09:20	52.2	52.2	52.2	78	45.5	5	13	112	0.00	29.734 
09:25	52.2	52.2	52.2	77	45.2	5	13	112	0.00	29.734 
09:30	52.3	52.3	52.3	76	45.0	4	10	90	0.00	29.728 
09:35	52.5	52.5	52.5	77	45.5	4	9	112	0.00	29.728 
09:40	52.6	52.6	52.6	75	44.9	5	13	112	0.00	29.728 
09:45	52.8	52.8	52.8	75	45.1	5	10	112	0.00	29.719 
09:50	53.3	53.3	53.3	75	45.6	5	10	112	0.00	29.719 
09:55	54.1	54.1	54.1	74	46.0	4	9	112	0.00	29.719 
10:00	54.5	54.5	54.5	72	45.7	6	11	90	0.00	29.715 
10:05	55.1	55.1	55.1	71	45.9	4	9	90	0.00	29.715 
10:10	55.1	55.1	55.1	69	45.1	5	11	112	0.00	29.715 
10:15	55.1	55.1	55.1	71	45.9	5	13	112	0.00	29.721 
10:20	55.3	55.3	55.3	71	46.1	6	11	90	0.00	29.721 
10:25	55.4	55.4	55.4	70	45.8	5	12	112	0.00	29.721 
10:30	55.4	55.4	55.4	71	46.2	4	11	90	0.00	29.728 
10:35	55.6	55.6	55.6	71	46.3	4	7	112	0.00	29.728 
10:40	56.2	56.2	56.2	69	46.2	5	7	112	0.00	29.728 
10:45	56.2	56.2	56.2	69	46.2	5	13	90	0.00	29.720 
10:50	56.5	56.5	56.5	69	46.5	6	13	90	0.00	29.720 
10:55	56.2	56.2	56.2	69	46.2	6	12	112	0.00	29.720 
11:00	56.3	56.3	56.3	70	46.6	5	10	112	0.00	29.727 
11:05	57.6	57.6	57.6	72	48.6	5	10	112	0.00	29.727 
11:10	58.3	58.3	58.3	68	47.8	6	11	112	0.00	29.727 
11:15	58.1	58.1	58.1	67	47.2	8	14	112	0.00	29.707 
11:20	57.8	57.8	57.8	67	46.9	5	10	112	0.00	29.707 
11:25	57.5	57.5	57.5	66	46.2	6	11	112	0.00	29.707 
11:30	57.5	57.5	57.5	67	46.6	6	13	112	0.00	29.716 
11:35	58.4	58.4	58.4	66	47.1	7	13	112	0.00	29.716 
11:40	59.8	59.8	59.8	65	48.0	5	11	90	0.00	29.716 
11:45	60.9	60.9	60.9	62	47.8	7	13	112	0.00	29.700 
11:50	61.5	61.5	61.5	58	46.6	7	14	112	0.00	29.700 
11:55	62.1	62.1	62.1	57	46.7	6	13	112	0.00	29.700 
12:00	62.6	62.6	62.6	56	46.7	6	12	112	0.00	29.716 
12:05	62.7	62.7	62.7	54	45.8	6	12	112	0.00	29.716 
12:10	62.7	62.7	62.7	55	46.3	8	16	112	0.00	29.716 
12:15	62.9	62.9	62.9	54	46.0	7	14	112	0.00	29.714 
12:20	63.1	63.1	63.1	55	46.7	5	12	112	0.00	29.714 
12:25	63.9	63.9	63.9	52	45.9	7	14	112	0.00	29.714 
12:30	63.5	63.5	63.5	52	45.6	9	15	112	0.00	29.709 
12:35	64.3	64.3	64.3	52	46.3	7	16	112	0.00	29.709 
12:40	63.9	63.9	63.9	54	46.9	6	12	112	0.00	29.709 
12:45	63.2	63.2	63.2	53	45.8	8	19	112	0.00	29.699 
12:50	62.9	62.9	62.9	53	45.5	7	14	90	0.00	29.699 
12:55	62.7	62.7	62.7	55	46.3	8	13	112	0.00	29.699 
13:00	62.7	62.7	62.7	54	45.8	7	12	112	0.00	29.696 
13:05	63.2	63.2	63.2	55	46.8	6	12	112	0.00	29.696 
13:10	63.4	63.4	63.4	54	46.5	6	11	112	0.00	29.696 
13:15	63.2	63.2	63.2	53	45.8	5	12	112	0.00	29.700 
13:20	63.1	63.1	63.1	53	45.7	6	14	112	0.00	29.700 
13:25	63.1	63.1	63.1	51	44.7	6	14	90	0.00	29.700 
13:30	63.1	63.1	63.1	52	45.2	5	10	90	0.00	29.685 
13:35	63.2	63.2	63.2	51	44.8	6	13	112	0.00	29.685 
13:40	63.2	63.2	63.2	52	45.3	6	11	112	0.00	29.685 
13:45	63.1	63.1	63.1	51	44.7	5	10	112	0.00	29.670 
13:50	63.1	63.1	63.1	51	44.7	7	15	112	0.00	29.670 
13:55	62.9	62.9	62.9	51	44.5	7	14	90	0.00	29.670 
14:00	62.9	62.9	62.9	50	44.0	7	14	90	0.00	29.662 
14:05	62.9	62.9	62.9	50	44.0	7	14	112	0.00	29.662 
14:10	62.9	62.9	62.9	49	43.4	9	17	112	0.00	29.662 
14:15	63.1	63.1	63.1	50	44.2	8	15	90	0.00	29.630 
14:20	63.1	63.1	63.1	51	44.7	8	17	112	0.00	29.630 
14:25	62.4	62.4	62.4	55	46.0	8	16	112	0.01	29.630 
14:30	62.6	62.6	62.6	55	46.2	8	15	112	0.00	29.625 
14:35	64.0	64.0	64.0	52	46.0	7	12	112	0.00	29.625 
14:40	64.8	64.8	64.8	48	44.6	9	18	112	0.00	29.625 
14:45	65.2	65.2	65.2	51	46.6	7	17	112	0.00	29.632 
14:50	65.8	65.8	65.8	50	46.6	6	14	112	0.00	29.632 
14:55	65.8	65.8	65.8	50	46.6	6	15	90	0.00	29.632 
15:00	66.0	66.0	66.0	49	46.3	6	17	112	0.00	29.635 
15:05	65.8	65.8	65.8	47	45.0	8	16	112	0.00	29.635 
15:10	66.0	66.0	66.0	50	46.8	8	15	112	0.00	29.635 
15:15	66.3	66.3	66.3	46	44.9	9	16	112	0.00	29.635 
15:20	66.0	66.0	66.0	46	44.6	10	17	112	0.00	29.635 
15:25	65.6	65.6	65.6	47	44.8	9	16	112	0.00	29.635 
15:30	65.6	65.6	65.6	46	44.3	7	15	112	0.00	29.635 
15:35	65.5	65.5	65.5	46	44.2	9	14	112	0.00	29.635 
15:40	65.5	65.5	65.5	46	44.2	9	19	112	0.00	29.635 
15:45	65.3	65.3	65.3	45	43.4	10	19	112	0.00	29.628 
15:50	65.3	65.3	65.3	44	42.8	11	17	112	0.00	29.628 
15:55	65.5	65.5	65.5	46	44.2	9	21	112	0.00	29.628 
16:00	65.6	65.6	65.6	44	43.1	9	14	112	0.00	29.617 
16:05	65.8	65.8	65.8	45	43.9	8	19	112	0.00	29.617 
16:10	65.6	65.6	65.6	43	42.5	10	16	112	0.00	29.617 
16:15	65.5	65.5	65.5	44	43.0	10	19	112	0.00	29.615 
16:20	65.8	65.8	65.8	44	43.3	8	16	112	0.00	29.615 
16:25	66.0	66.0	66.0	47	45.2	10	19	112	0.00	29.615 
16:30	66.0	66.0	66.0	46	44.6	8	26	112	0.00	29.610 
16:35	65.8	65.8	65.8	47	45.0	8	19	112	0.00	29.610 
16:40	65.6	65.6	65.6	49	45.9	9	18	112	0.00	29.610 
16:45	65.3	65.3	65.3	50	46.2	8	17	112	0.00	29.620 
16:50	64.7	64.7	64.7	50	45.6	9	19	112	0.00	29.620 
16:55	64.3	64.3	64.3	50	45.3	8	19	112	0.00	29.620 
17:00	64.0	64.0	64.0	50	45.0	8	19	112	0.00	29.620 
17:05	63.7	63.7	63.7	49	44.2	10	20	112	0.00	29.620 
17:10	63.2	63.2	63.2	50	44.2	9	18	112	0.00	29.620 
17:15	62.7	62.7	62.7	51	44.3	10	18	112	0.00	29.631 
17:20	62.6	62.6	62.6	51	44.2	10	17	90	0.00	29.631 
17:25	62.6	62.6	62.6	51	44.2	9	15	112	0.00	29.631 
17:30	62.6	62.6	62.6	52	44.7	7	15	112	0.00	29.626 
17:35	62.4	62.4	62.4	55	46.0	7	16	112	0.00	29.626 
17:40	62.1	62.1	62.1	53	44.8	8	19	112	0.00	29.626 
17:45	61.8	61.8	61.8	52	44.0	9	19	112	0.00	29.625 
17:50	61.5	61.5	61.5	54	44.7	7	18	112	0.00	29.625 
17:55	61.3	61.3	61.3	52	43.5	7	19	112	0.00	29.625 
18:00	61.2	61.2	61.2	52	43.4	7	12	112	0.00	29.623 
18:05	60.9	60.9	60.9	51	42.6	10	17	112	0.00	29.623 
18:10	60.5	60.5	60.5	52	42.8	8	19	112	0.00	29.623 
18:15	60.4	60.4	60.4	52	42.7	7	17	90	0.00	29.625 
18:20	60.2	60.2	60.2	52	42.5	7	12	112	0.00	29.625 
18:25	59.9	59.9	59.9	52	42.2	8	15	112	0.00	29.625 
18:30	59.9	59.9	59.9	52	42.2	7	14	112	0.00	29.629 
18:35	59.9	59.9	59.9	54	43.2	7	18	112	0.00	29.629 
18:40	59.6	59.6	59.6	52	42.0	9	16	112	0.00	29.629 
18:45	59.3	59.3	59.3	52	41.7	8	16	112	0.00	29.626 
18:50	59.2	59.2	59.2	54	42.6	5	14	112	0.00	29.626 
18:55	58.7	58.7	58.7	53	41.6	7	14	112	0.00	29.626 
19:00	58.4	58.4	58.4	52	40.8	9	17	112	0.00	29.640 
19:05	58.0	58.0	58.0	53	41.0	8	17	112	0.00	29.640 
19:10	57.6	57.6	57.6	55	41.6	5	15	112	0.00	29.640 
19:15	57.3	57.3	57.3	54	40.8	6	15	112	0.00	29.637 
19:20	56.9	56.9	56.9	54	40.4	7	18	112	0.00	29.637 
19:25	56.6	56.6	56.6	54	40.1	7	14	112	0.00	29.637 
19:30	56.3	56.3	56.3	54	39.9	6	15	112	0.00	29.646 
19:35	56.0	56.0	56.0	55	40.1	7	15	112	0.00	29.646 
19:40	55.7	55.7	55.7	55	39.8	5	14	112	0.00	29.646 
19:45	55.4	55.4	55.4	54	39.0	6	16	112	0.00	29.649 
19:50	55.1	55.1	55.1	55	39.2	5	12	112	0.00	29.649 
19:55	55.0	55.0	55.0	55	39.1	5	11	112	0.00	29.649 
20:00	54.8	54.8	54.8	56	39.4	5	14	112	0.00	29.674 
20:05	54.5	54.5	54.5	57	39.6	8	18	112	0.00	29.674 
20:10	54.4	54.4	54.4	58	39.9	6	12	112	0.00	29.674 
20:15	54.1	54.1	54.1	59	40.1	7	15	112	0.00	29.662 
20:20	53.6	53.6	53.6	59	39.6	7	19	112	0.00	29.662 
20:25	53.3	53.3	53.3	60	39.8	6	19	112	0.00	29.662 
20:30	53.1	53.1	53.1	60	39.6	6	18	112	0.00	29.666 
20:35	52.8	52.8	52.8	60	39.3	6	18	112	0.00	29.666 
20:40	52.6	52.6	52.6	61	39.5	8	14	112	0.00	29.666 
20:45	52.3	52.3	52.3	62	39.7	8	16	112	0.00	29.672 
20:50	52.0	52.0	52.0	63	39.8	8	16	112	0.00	29.672 
20:55	51.7	51.7	51.7	64	39.9	8	18	112	0.00	29.672 
21:00	51.6	51.6	51.6	65	40.2	6	17	112	0.00	29.678 
21:05	51.4	51.4	51.4	65	40.0	8	16	112	0.00	29.678 
21:10	51.3	51.3	51.3	65	39.9	7	14	112	0.00	29.678 
21:15	51.1	51.1	51.1	66	40.1	8	19	112	0.00	29.673 
21:20	51.1	51.1	51.1	66	40.1	5	15	112	0.00	29.673 
21:25	51.0	51.0	51.0	66	40.0	5	16	112	0.00	29.673 
21:30	50.8	50.8	50.8	67	40.2	6	13	112	0.00	29.682 
21:35	50.7	50.7	50.7	68	40.5	6	13	112	0.00	29.682 
21:40	50.5	50.5	50.5	69	40.7	5	12	90	0.00	29.682 
21:45	50.5	50.5	50.5	70	41.1	4	10	112	0.00	29.693 
21:50	50.4	50.4	50.4	72	41.7	3	7	90	0.00	29.693 
21:55	50.1	50.1	50.1	74	42.1	4	10	112	0.01	29.693 
22:00	49.8	48.6	49.8	74	41.9	4	10	112	0.00	29.703 
22:05	49.5	48.3	49.5	76	42.3	4	12	112	0.02	29.703 
22:10	49.2	49.2	49.2	77	42.3	3	9	90	0.00	29.703 
22:15	48.9	47.6	48.9	78	42.3	4	9	112	0.00	29.709 
22:20	48.8	46.8	48.8	79	42.6	5	12	112	0.01	29.709 
22:25	48.5	46.5	48.5	80	42.6	5	12	90	0.01	29.709 
22:30	48.2	46.1	48.2	79	42.0	5	11	112	0.02	29.688 
22:35	48.0	45.9	48.0	79	41.8	5	12	112	0.01	29.688 
22:40	47.9	46.4	47.9	80	42.0	4	10	90	0.02	29.688 
22:45	47.6	46.1	47.6	80	41.7	4	9	90	0.01	29.706 
22:50	47.3	45.8	47.3	83	42.4	4	7	112	0.02	29.706 
22:55	47.1	44.8	47.1	81	41.6	5	11	112	0.01	29.706 
23:00	47.1	44.8	47.1	81	41.6	5	12	112	0.00	29.701 
23:05	47.1	45.5	47.1	81	41.6	4	10	90	0.00	29.701 
23:10	47.1	45.5	47.1	82	41.9	4	10	112	0.02	29.701 
23:15	47.0	43.6	47.0	82	41.8	7	14	112	0.01	29.689 
23:20	46.7	42.7	46.7	83	41.8	8	14	112	0.01	29.689 
23:25	46.5	43.0	46.5	84	41.9	7	13	112	0.01	29.689 
23:30	46.2	42.6	46.2	85	41.9	7	15	112	0.01	29.689 
23:35	46.2	42.6	46.2	85	41.9	7	13	90	0.02	29.689 
23:40	46.2	43.1	46.2	86	42.2	6	14	90	0.01	29.689 
23:45	46.2	42.6	46.2	87	42.5	7	14	112	0.02	29.695 
23:50	46.2	43.8	46.2	87	42.5	5	11	112	0.02	29.695 
23:55	46.1	43.0	46.1	88	42.7	6	16	112	0.01	29.695 

CoCoRaHS
IN-AL-39
A2 Web Hosting
Creative Commons License
GoDaddy
Look for:

loaded 2017-10-17 09:26:04 • last modified 2010-11-18 10:43:29
Privacy PolicyDisclaimer
• wx.awcolley.com is powered by PmWiki v.2002016 •
• all content (unless otherwise noted) © 2017 A W Colley